sensor_id;sensor_type;location;lat;lon;timestamp;P1;durP1;ratioP1;P2;durP2;ratioP2
34896;SDS011;43407;51.828;-2.298;2024-03-22T00:02:11;10.68;;;5.68;;
34896;SDS011;43407;51.828;-2.298;2024-03-22T00:04:36;11.13;;;6.28;;
34896;SDS011;43407;51.828;-2.298;2024-03-22T00:07:02;11.02;;;6.13;;
34896;SDS011;43407;51.828;-2.298;2024-03-22T00:09:28;8.43;;;5.25;;
34896;SDS011;43407;51.828;-2.298;2024-03-22T00:11:53;9.65;;;5.82;;
34896;SDS011;43407;51.828;-2.298;2024-03-22T00:14:18;13.25;;;6.20;;
34896;SDS011;43407;51.828;-2.298;2024-03-22T00:16:44;12.45;;;6.45;;
34896;SDS011;43407;51.828;-2.298;2024-03-22T00:19:09;11.93;;;5.63;;
34896;SDS011;43407;51.828;-2.298;2024-03-22T00:21:34;12.75;;;7.13;;
34896;SDS011;43407;51.828;-2.298;2024-03-22T00:24:00;18.13;;;7.10;;
34896;SDS011;43407;51.828;-2.298;2024-03-22T00:26:26;15.65;;;6.85;;
34896;SDS011;43407;51.828;-2.298;2024-03-22T00:28:52;16.98;;;7.05;;
34896;SDS011;43407;51.828;-2.298;2024-03-22T00:31:18;17.70;;;6.85;;
34896;SDS011;43407;51.828;-2.298;2024-03-22T00:33:43;15.05;;;6.72;;
34896;SDS011;43407;51.828;-2.298;2024-03-22T00:36:09;12.00;;;7.32;;
34896;SDS011;43407;51.828;-2.298;2024-03-22T00:38:35;13.98;;;6.82;;
34896;SDS011;43407;51.828;-2.298;2024-03-22T00:41:00;13.52;;;7.05;;
34896;SDS011;43407;51.828;-2.298;2024-03-22T00:43:26;17.08;;;6.90;;
34896;SDS011;43407;51.828;-2.298;2024-03-22T00:45:51;15.05;;;6.60;;
34896;SDS011;43407;51.828;-2.298;2024-03-22T00:48:16;15.88;;;7.25;;
34896;SDS011;43407;51.828;-2.298;2024-03-22T00:50:41;15.13;;;7.38;;
34896;SDS011;43407;51.828;-2.298;2024-03-22T00:53:07;15.35;;;7.18;;
34896;SDS011;43407;51.828;-2.298;2024-03-22T00:55:33;19.15;;;7.15;;
34896;SDS011;43407;51.828;-2.298;2024-03-22T00:57:58;17.33;;;7.60;;
34896;SDS011;43407;51.828;-2.298;2024-03-22T01:00:24;17.85;;;7.15;;
34896;SDS011;43407;51.828;-2.298;2024-03-22T01:02:49;11.32;;;6.20;;
34896;SDS011;43407;51.828;-2.298;2024-03-22T01:05:15;18.50;;;6.88;;
34896;SDS011;43407;51.828;-2.298;2024-03-22T01:07:40;19.33;;;7.57;;
34896;SDS011;43407;51.828;-2.298;2024-03-22T01:10:06;13.57;;;7.18;;
34896;SDS011;43407;51.828;-2.298;2024-03-22T01:12:31;13.13;;;6.95;;
34896;SDS011;43407;51.828;-2.298;2024-03-22T01:14:57;13.82;;;6.47;;
34896;SDS011;43407;51.828;-2.298;2024-03-22T01:17:23;12.85;;;6.45;;
34896;SDS011;43407;51.828;-2.298;2024-03-22T01:19:48;15.20;;;6.35;;
34896;SDS011;43407;51.828;-2.298;2024-03-22T01:22:15;15.45;;;6.82;;
34896;SDS011;43407;51.828;-2.298;2024-03-22T01:24:40;13.63;;;6.63;;
34896;SDS011;43407;51.828;-2.298;2024-03-22T01:27:05;12.20;;;7.00;;
34896;SDS011;43407;51.828;-2.298;2024-03-22T01:29:31;11.55;;;6.85;;
34896;SDS011;43407;51.828;-2.298;2024-03-22T01:31:57;16.42;;;7.07;;
34896;SDS011;43407;51.828;-2.298;2024-03-22T01:34:23;13.82;;;6.75;;
34896;SDS011;43407;51.828;-2.298;2024-03-22T01:36:48;13.10;;;6.10;;
34896;SDS011;43407;51.828;-2.298;2024-03-22T01:39:13;9.48;;;6.07;;
34896;SDS011;43407;51.828;-2.298;2024-03-22T01:41:40;18.35;;;6.85;;
34896;SDS011;43407;51.828;-2.298;2024-03-22T01:44:06;11.90;;;5.90;;
34896;SDS011;43407;51.828;-2.298;2024-03-22T01:46:31;12.13;;;6.65;;
34896;SDS011;43407;51.828;-2.298;2024-03-22T01:48:56;20.17;;;7.18;;
34896;SDS011;43407;51.828;-2.298;2024-03-22T01:51:22;11.63;;;6.90;;
34896;SDS011;43407;51.828;-2.298;2024-03-22T01:53:47;20.52;;;7.90;;
34896;SDS011;43407;51.828;-2.298;2024-03-22T01:56:13;11.57;;;6.30;;
34896;SDS011;43407;51.828;-2.298;2024-03-22T01:58:39;10.25;;;6.05;;
34896;SDS011;43407;51.828;-2.298;2024-03-22T02:01:04;10.90;;;6.25;;
34896;SDS011;43407;51.828;-2.298;2024-03-22T02:03:29;14.48;;;6.72;;
34896;SDS011;43407;51.828;-2.298;2024-03-22T02:05:55;9.85;;;5.40;;
34896;SDS011;43407;51.828;-2.298;2024-03-22T02:08:21;11.40;;;5.80;;
34896;SDS011;43407;51.828;-2.298;2024-03-22T02:10:46;7.57;;;5.47;;
34896;SDS011;43407;51.828;-2.298;2024-03-22T02:13:12;12.82;;;5.85;;
34896;SDS011;43407;51.828;-2.298;2024-03-22T02:15:37;10.27;;;6.43;;
34896;SDS011;43407;51.828;-2.298;2024-03-22T02:18:03;10.65;;;5.55;;
34896;SDS011;43407;51.828;-2.298;2024-03-22T02:20:28;18.52;;;6.90;;
34896;SDS011;43407;51.828;-2.298;2024-03-22T02:22:54;15.20;;;6.70;;
34896;SDS011;43407;51.828;-2.298;2024-03-22T02:25:19;8.00;;;5.57;;
34896;SDS011;43407;51.828;-2.298;2024-03-22T02:27:45;8.85;;;5.82;;
34896;SDS011;43407;51.828;-2.298;2024-03-22T02:30:10;6.82;;;4.72;;
34896;SDS011;43407;51.828;-2.298;2024-03-22T02:32:35;8.15;;;5.70;;
34896;SDS011;43407;51.828;-2.298;2024-03-22T02:35:02;10.55;;;5.90;;
34896;SDS011;43407;51.828;-2.298;2024-03-22T02:37:27;9.68;;;5.20;;
34896;SDS011;43407;51.828;-2.298;2024-03-22T02:39:53;7.53;;;5.43;;
34896;SDS011;43407;51.828;-2.298;2024-03-22T02:42:18;11.40;;;5.97;;
34896;SDS011;43407;51.828;-2.298;2024-03-22T02:44:43;13.43;;;5.97;;
34896;SDS011;43407;51.828;-2.298;2024-03-22T02:47:09;12.25;;;5.57;;
34896;SDS011;43407;51.828;-2.298;2024-03-22T02:49:35;12.40;;;5.18;;
34896;SDS011;43407;51.828;-2.298;2024-03-22T02:52:00;9.55;;;5.05;;
34896;SDS011;43407;51.828;-2.298;2024-03-22T02:54:26;9.88;;;5.47;;
34896;SDS011;43407;51.828;-2.298;2024-03-22T02:56:51;9.63;;;5.82;;
34896;SDS011;43407;51.828;-2.298;2024-03-22T02:59:16;8.60;;;5.80;;
34896;SDS011;43407;51.828;-2.298;2024-03-22T03:01:41;7.70;;;5.57;;
34896;SDS011;43407;51.828;-2.298;2024-03-22T03:04:07;9.93;;;5.25;;
34896;SDS011;43407;51.828;-2.298;2024-03-22T03:06:32;10.23;;;5.30;;
34896;SDS011;43407;51.828;-2.298;2024-03-22T03:08:57;9.20;;;5.00;;
34896;SDS011;43407;51.828;-2.298;2024-03-22T03:11:23;10.15;;;4.55;;
34896;SDS011;43407;51.828;-2.298;2024-03-22T03:13:48;8.02;;;4.78;;
34896;SDS011;43407;51.828;-2.298;2024-03-22T03:16:13;7.35;;;4.75;;
34896;SDS011;43407;51.828;-2.298;2024-03-22T03:18:39;7.45;;;4.68;;
34896;SDS011;43407;51.828;-2.298;2024-03-22T03:21:04;6.32;;;4.35;;
34896;SDS011;43407;51.828;-2.298;2024-03-22T03:23:30;8.02;;;5.00;;
34896;SDS011;43407;51.828;-2.298;2024-03-22T03:25:55;9.93;;;5.25;;
34896;SDS011;43407;51.828;-2.298;2024-03-22T03:28:20;7.90;;;4.90;;
34896;SDS011;43407;51.828;-2.298;2024-03-22T03:30:46;7.22;;;4.35;;
34896;SDS011;43407;51.828;-2.298;2024-03-22T03:33:11;7.50;;;4.65;;
34896;SDS011;43407;51.828;-2.298;2024-03-22T03:35:36;8.30;;;5.13;;
34896;SDS011;43407;51.828;-2.298;2024-03-22T03:38:01;6.65;;;4.22;;
34896;SDS011;43407;51.828;-2.298;2024-03-22T03:40:27;6.07;;;4.65;;
34896;SDS011;43407;51.828;-2.298;2024-03-22T03:42:53;10.75;;;4.60;;
34896;SDS011;43407;51.828;-2.298;2024-03-22T03:45:18;7.45;;;5.07;;
34896;SDS011;43407;51.828;-2.298;2024-03-22T03:47:43;6.68;;;4.30;;
34896;SDS011;43407;51.828;-2.298;2024-03-22T03:50:08;7.65;;;4.63;;
34896;SDS011;43407;51.828;-2.298;2024-03-22T03:52:34;9.32;;;5.45;;
34896;SDS011;43407;51.828;-2.298;2024-03-22T03:54:59;6.10;;;4.70;;
34896;SDS011;43407;51.828;-2.298;2024-03-22T03:57:24;6.85;;;4.43;;
34896;SDS011;43407;51.828;-2.298;2024-03-22T03:59:50;6.32;;;4.55;;
34896;SDS011;43407;51.828;-2.298;2024-03-22T04:02:15;5.80;;;4.25;;
34896;SDS011;43407;51.828;-2.298;2024-03-22T04:04:40;8.15;;;4.53;;
34896;SDS011;43407;51.828;-2.298;2024-03-22T04:07:06;5.68;;;4.40;;
34896;SDS011;43407;51.828;-2.298;2024-03-22T04:09:31;6.97;;;4.68;;
34896;SDS011;43407;51.828;-2.298;2024-03-22T04:11:57;6.18;;;4.45;;
34896;SDS011;43407;51.828;-2.298;2024-03-22T04:14:24;6.30;;;4.32;;
34896;SDS011;43407;51.828;-2.298;2024-03-22T04:16:49;7.13;;;4.25;;
34896;SDS011;43407;51.828;-2.298;2024-03-22T04:19:14;4.93;;;4.00;;
34896;SDS011;43407;51.828;-2.298;2024-03-22T04:21:40;7.60;;;4.40;;
34896;SDS011;43407;51.828;-2.298;2024-03-22T04:24:05;9.43;;;4.28;;
34896;SDS011;43407;51.828;-2.298;2024-03-22T04:26:31;7.43;;;3.88;;
34896;SDS011;43407;51.828;-2.298;2024-03-22T04:28:56;7.63;;;4.40;;
34896;SDS011;43407;51.828;-2.298;2024-03-22T04:31:22;6.43;;;4.20;;
34896;SDS011;43407;51.828;-2.298;2024-03-22T04:33:47;6.75;;;4.32;;
34896;SDS011;43407;51.828;-2.298;2024-03-22T04:36:12;6.60;;;3.75;;
34896;SDS011;43407;51.828;-2.298;2024-03-22T04:38:38;6.40;;;4.38;;
34896;SDS011;43407;51.828;-2.298;2024-03-22T04:41:03;6.90;;;4.20;;
34896;SDS011;43407;51.828;-2.298;2024-03-22T04:43:28;4.90;;;3.75;;
34896;SDS011;43407;51.828;-2.298;2024-03-22T04:45:54;5.60;;;4.18;;
34896;SDS011;43407;51.828;-2.298;2024-03-22T04:48:20;5.03;;;3.50;;
34896;SDS011;43407;51.828;-2.298;2024-03-22T04:50:48;4.28;;;3.80;;
34896;SDS011;43407;51.828;-2.298;2024-03-22T04:53:15;3.97;;;3.25;;
34896;SDS011;43407;51.828;-2.298;2024-03-22T04:55:42;4.47;;;3.47;;
34896;SDS011;43407;51.828;-2.298;2024-03-22T04:58:11;5.30;;;3.25;;
34896;SDS011;43407;51.828;-2.298;2024-03-22T05:00:36;5.05;;;3.20;;
34896;SDS011;43407;51.828;-2.298;2024-03-22T05:03:01;6.60;;;3.20;;
34896;SDS011;43407;51.828;-2.298;2024-03-22T05:05:27;3.30;;;2.60;;
34896;SDS011;43407;51.828;-2.298;2024-03-22T05:07:52;3.63;;;2.78;;
34896;SDS011;43407;51.828;-2.298;2024-03-22T05:10:18;3.03;;;2.83;;
34896;SDS011;43407;51.828;-2.298;2024-03-22T05:12:43;3.40;;;2.33;;
34896;SDS011;43407;51.828;-2.298;2024-03-22T05:15:08;2.22;;;2.13;;
34896;SDS011;43407;51.828;-2.298;2024-03-22T05:17:34;2.22;;;2.00;;
34896;SDS011;43407;51.828;-2.298;2024-03-22T05:19:59;3.42;;;2.10;;
34896;SDS011;43407;51.828;-2.298;2024-03-22T05:22:24;1.88;;;1.77;;
34896;SDS011;43407;51.828;-2.298;2024-03-22T05:24:50;1.92;;;1.58;;
34896;SDS011;43407;51.828;-2.298;2024-03-22T05:27:16;1.88;;;1.73;;
34896;SDS011;43407;51.828;-2.298;2024-03-22T05:29:42;1.67;;;1.58;;
34896;SDS011;43407;51.828;-2.298;2024-03-22T05:32:07;1.90;;;1.70;;
34896;SDS011;43407;51.828;-2.298;2024-03-22T05:34:32;1.60;;;1.50;;
34896;SDS011;43407;51.828;-2.298;2024-03-22T05:36:58;1.48;;;1.38;;
34896;SDS011;43407;51.828;-2.298;2024-03-22T05:39:24;1.42;;;1.30;;
34896;SDS011;43407;51.828;-2.298;2024-03-22T05:41:49;1.15;;;1.10;;
34896;SDS011;43407;51.828;-2.298;2024-03-22T05:44:14;1.20;;;1.20;;
34896;SDS011;43407;51.828;-2.298;2024-03-22T05:46:40;0.80;;;0.80;;
34896;SDS011;43407;51.828;-2.298;2024-03-22T05:49:05;0.80;;;0.80;;
34896;SDS011;43407;51.828;-2.298;2024-03-22T05:51:30;0.60;;;0.60;;
34896;SDS011;43407;51.828;-2.298;2024-03-22T05:53:56;0.65;;;0.65;;
34896;SDS011;43407;51.828;-2.298;2024-03-22T05:56:21;0.52;;;0.52;;
34896;SDS011;43407;51.828;-2.298;2024-03-22T05:58:46;0.57;;;0.57;;
34896;SDS011;43407;51.828;-2.298;2024-03-22T06:01:12;0.40;;;0.40;;
34896;SDS011;43407;51.828;-2.298;2024-03-22T06:03:37;0.63;;;0.43;;
34896;SDS011;43407;51.828;-2.298;2024-03-22T06:06:02;0.50;;;0.50;;
34896;SDS011;43407;51.828;-2.298;2024-03-22T06:08:28;0.30;;;0.30;;
34896;SDS011;43407;51.828;-2.298;2024-03-22T06:10:54;0.30;;;0.30;;
34896;SDS011;43407;51.828;-2.298;2024-03-22T06:13:19;0.30;;;0.30;;
34896;SDS011;43407;51.828;-2.298;2024-03-22T06:15:45;0.30;;;0.30;;
34896;SDS011;43407;51.828;-2.298;2024-03-22T06:18:13;0.22;;;0.20;;
34896;SDS011;43407;51.828;-2.298;2024-03-22T06:20:38;0.30;;;0.30;;
34896;SDS011;43407;51.828;-2.298;2024-03-22T06:23:03;0.43;;;0.32;;
34896;SDS011;43407;51.828;-2.298;2024-03-22T06:25:29;0.30;;;0.30;;
34896;SDS011;43407;51.828;-2.298;2024-03-22T06:27:54;0.20;;;0.20;;
34896;SDS011;43407;51.828;-2.298;2024-03-22T06:30:19;0.43;;;0.35;;
34896;SDS011;43407;51.828;-2.298;2024-03-22T06:32:45;0.20;;;0.20;;
34896;SDS011;43407;51.828;-2.298;2024-03-22T06:35:10;0.20;;;0.20;;
34896;SDS011;43407;51.828;-2.298;2024-03-22T06:37:37;0.25;;;0.25;;
34896;SDS011;43407;51.828;-2.298;2024-03-22T06:40:02;0.38;;;0.25;;
34896;SDS011;43407;51.828;-2.298;2024-03-22T06:42:28;0.20;;;0.20;;
34896;SDS011;43407;51.828;-2.298;2024-03-22T06:44:53;0.15;;;0.15;;
34896;SDS011;43407;51.828;-2.298;2024-03-22T06:47:18;0.20;;;0.20;;
34896;SDS011;43407;51.828;-2.298;2024-03-22T06:49:45;0.20;;;0.20;;
34896;SDS011;43407;51.828;-2.298;2024-03-22T06:52:11;0.22;;;0.22;;
34896;SDS011;43407;51.828;-2.298;2024-03-22T06:54:36;0.20;;;0.20;;
34896;SDS011;43407;51.828;-2.298;2024-03-22T06:57:01;0.20;;;0.20;;
34896;SDS011;43407;51.828;-2.298;2024-03-22T06:59:27;0.30;;;0.30;;
34896;SDS011;43407;51.828;-2.298;2024-03-22T07:01:52;0.50;;;0.40;;
34896;SDS011;43407;51.828;-2.298;2024-03-22T07:04:17;0.40;;;0.40;;
34896;SDS011;43407;51.828;-2.298;2024-03-22T07:06:43;0.30;;;0.30;;
34896;SDS011;43407;51.828;-2.298;2024-03-22T07:09:08;0.88;;;0.43;;
34896;SDS011;43407;51.828;-2.298;2024-03-22T07:11:34;0.30;;;0.30;;
34896;SDS011;43407;51.828;-2.298;2024-03-22T07:13:59;0.20;;;0.20;;
34896;SDS011;43407;51.828;-2.298;2024-03-22T07:16:24;0.20;;;0.20;;
34896;SDS011;43407;51.828;-2.298;2024-03-22T07:18:50;0.65;;;0.30;;
34896;SDS011;43407;51.828;-2.298;2024-03-22T07:21:15;0.30;;;0.30;;
34896;SDS011;43407;51.828;-2.298;2024-03-22T07:23:40;0.30;;;0.20;;
34896;SDS011;43407;51.828;-2.298;2024-03-22T07:26:06;0.30;;;0.30;;
34896;SDS011;43407;51.828;-2.298;2024-03-22T07:28:32;0.45;;;0.28;;
34896;SDS011;43407;51.828;-2.298;2024-03-22T07:30:58;0.47;;;0.30;;
34896;SDS011;43407;51.828;-2.298;2024-03-22T07:33:23;0.50;;;0.38;;
34896;SDS011;43407;51.828;-2.298;2024-03-22T07:35:49;0.30;;;0.30;;
34896;SDS011;43407;51.828;-2.298;2024-03-22T07:38:14;0.43;;;0.30;;
34896;SDS011;43407;51.828;-2.298;2024-03-22T07:40:39;0.30;;;0.30;;
34896;SDS011;43407;51.828;-2.298;2024-03-22T07:43:04;1.65;;;0.57;;
34896;SDS011;43407;51.828;-2.298;2024-03-22T07:45:36;0.38;;;0.22;;
34896;SDS011;43407;51.828;-2.298;2024-03-22T07:48:02;1.08;;;0.40;;
34896;SDS011;43407;51.828;-2.298;2024-03-22T07:50:27;1.50;;;0.40;;
34896;SDS011;43407;51.828;-2.298;2024-03-22T07:52:53;0.50;;;0.40;;
34896;SDS011;43407;51.828;-2.298;2024-03-22T07:55:18;0.60;;;0.43;;
34896;SDS011;43407;51.828;-2.298;2024-03-22T07:57:44;1.02;;;0.60;;
34896;SDS011;43407;51.828;-2.298;2024-03-22T08:00:09;4.00;;;0.90;;
34896;SDS011;43407;51.828;-2.298;2024-03-22T08:02:35;2.22;;;0.63;;
34896;SDS011;43407;51.828;-2.298;2024-03-22T08:05:00;2.05;;;0.80;;
34896;SDS011;43407;51.828;-2.298;2024-03-22T08:07:26;1.10;;;0.65;;
34896;SDS011;43407;51.828;-2.298;2024-03-22T08:09:52;2.97;;;1.02;;
34896;SDS011;43407;51.828;-2.298;2024-03-22T08:12:17;2.22;;;1.20;;
34896;SDS011;43407;51.828;-2.298;2024-03-22T08:14:44;3.63;;;1.23;;
34896;SDS011;43407;51.828;-2.298;2024-03-22T08:17:09;5.50;;;1.15;;
34896;SDS011;43407;51.828;-2.298;2024-03-22T08:19:36;7.40;;;1.48;;
34896;SDS011;43407;51.828;-2.298;2024-03-22T08:22:03;2.85;;;0.93;;
34896;SDS011;43407;51.828;-2.298;2024-03-22T08:24:28;6.78;;;2.05;;
34896;SDS011;43407;51.828;-2.298;2024-03-22T08:26:53;6.40;;;1.70;;
34896;SDS011;43407;51.828;-2.298;2024-03-22T08:29:19;8.02;;;1.70;;
34896;SDS011;43407;51.828;-2.298;2024-03-22T08:31:44;4.18;;;1.42;;
34896;SDS011;43407;51.828;-2.298;2024-03-22T08:34:09;7.70;;;1.98;;
34896;SDS011;43407;51.828;-2.298;2024-03-22T08:36:35;9.38;;;1.70;;
34896;SDS011;43407;51.828;-2.298;2024-03-22T08:39:01;7.57;;;1.80;;
34896;SDS011;43407;51.828;-2.298;2024-03-22T08:41:27;9.43;;;2.47;;
34896;SDS011;43407;51.828;-2.298;2024-03-22T08:43:52;9.80;;;2.20;;
34896;SDS011;43407;51.828;-2.298;2024-03-22T08:46:17;11.32;;;2.25;;
34896;SDS011;43407;51.828;-2.298;2024-03-22T08:48:43;8.98;;;2.40;;
34896;SDS011;43407;51.828;-2.298;2024-03-22T08:51:08;9.65;;;2.42;;
34896;SDS011;43407;51.828;-2.298;2024-03-22T08:53:34;9.50;;;2.33;;
34896;SDS011;43407;51.828;-2.298;2024-03-22T08:55:59;7.65;;;2.40;;
34896;SDS011;43407;51.828;-2.298;2024-03-22T08:58:24;4.25;;;1.60;;
34896;SDS011;43407;51.828;-2.298;2024-03-22T09:00:49;9.43;;;2.05;;
34896;SDS011;43407;51.828;-2.298;2024-03-22T09:03:15;6.68;;;2.03;;
34896;SDS011;43407;51.828;-2.298;2024-03-22T09:05:40;8.52;;;2.45;;
34896;SDS011;43407;51.828;-2.298;2024-03-22T09:08:06;9.48;;;2.30;;
34896;SDS011;43407;51.828;-2.298;2024-03-22T09:10:31;7.78;;;2.33;;
34896;SDS011;43407;51.828;-2.298;2024-03-22T09:12:57;6.80;;;2.30;;
34896;SDS011;43407;51.828;-2.298;2024-03-22T09:15:22;12.38;;;2.90;;
34896;SDS011;43407;51.828;-2.298;2024-03-22T09:17:47;7.70;;;2.38;;
34896;SDS011;43407;51.828;-2.298;2024-03-22T09:20:13;9.77;;;2.42;;
34896;SDS011;43407;51.828;-2.298;2024-03-22T09:22:39;10.93;;;2.25;;
34896;SDS011;43407;51.828;-2.298;2024-03-22T09:25:04;9.40;;;2.25;;
34896;SDS011;43407;51.828;-2.298;2024-03-22T09:27:31;8.60;;;2.00;;
34896;SDS011;43407;51.828;-2.298;2024-03-22T09:29:56;10.43;;;2.60;;
34896;SDS011;43407;51.828;-2.298;2024-03-22T09:32:21;8.75;;;2.53;;
34896;SDS011;43407;51.828;-2.298;2024-03-22T09:34:48;10.88;;;2.63;;
34896;SDS011;43407;51.828;-2.298;2024-03-22T09:37:14;12.30;;;2.50;;
34896;SDS011;43407;51.828;-2.298;2024-03-22T09:39:39;9.88;;;2.22;;
34896;SDS011;43407;51.828;-2.298;2024-03-22T09:42:05;13.88;;;2.42;;
34896;SDS011;43407;51.828;-2.298;2024-03-22T09:44:31;12.25;;;2.85;;
34896;SDS011;43407;51.828;-2.298;2024-03-22T09:46:57;10.00;;;2.55;;
34896;SDS011;43407;51.828;-2.298;2024-03-22T09:49:23;12.85;;;3.17;;
34896;SDS011;43407;51.828;-2.298;2024-03-22T09:51:49;14.20;;;3.35;;
34896;SDS011;43407;51.828;-2.298;2024-03-22T09:54:16;15.30;;;3.55;;
34896;SDS011;43407;51.828;-2.298;2024-03-22T09:56:42;12.80;;;3.08;;
34896;SDS011;43407;51.828;-2.298;2024-03-22T09:59:07;11.32;;;3.38;;
34896;SDS011;43407;51.828;-2.298;2024-03-22T10:01:34;11.38;;;3.30;;
34896;SDS011;43407;51.828;-2.298;2024-03-22T10:04:00;9.93;;;2.80;;
34896;SDS011;43407;51.828;-2.298;2024-03-22T10:06:25;16.23;;;3.13;;
34896;SDS011;43407;51.828;-2.298;2024-03-22T10:08:50;10.75;;;3.42;;
34896;SDS011;43407;51.828;-2.298;2024-03-22T10:11:16;8.95;;;2.83;;
34896;SDS011;43407;51.828;-2.298;2024-03-22T10:13:41;11.10;;;3.05;;
34896;SDS011;43407;51.828;-2.298;2024-03-22T10:16:07;10.77;;;2.67;;
34896;SDS011;43407;51.828;-2.298;2024-03-22T10:18:33;8.80;;;3.03;;
34896;SDS011;43407;51.828;-2.298;2024-03-22T10:21:03;11.38;;;2.83;;
34896;SDS011;43407;51.828;-2.298;2024-03-22T10:23:29;10.73;;;2.95;;
34896;SDS011;43407;51.828;-2.298;2024-03-22T10:25:55;16.95;;;3.50;;
34896;SDS011;43407;51.828;-2.298;2024-03-22T10:28:21;15.70;;;3.90;;
34896;SDS011;43407;51.828;-2.298;2024-03-22T10:30:47;18.15;;;3.88;;
34896;SDS011;43407;51.828;-2.298;2024-03-22T10:33:14;13.43;;;3.63;;
34896;SDS011;43407;51.828;-2.298;2024-03-22T10:35:40;15.95;;;3.63;;
34896;SDS011;43407;51.828;-2.298;2024-03-22T10:38:06;12.73;;;3.58;;
34896;SDS011;43407;51.828;-2.298;2024-03-22T10:40:32;13.13;;;2.92;;
34896;SDS011;43407;51.828;-2.298;2024-03-22T10:42:58;12.95;;;3.53;;
34896;SDS011;43407;51.828;-2.298;2024-03-22T10:45:25;12.57;;;3.10;;
34896;SDS011;43407;51.828;-2.298;2024-03-22T10:47:53;17.67;;;4.13;;
34896;SDS011;43407;51.828;-2.298;2024-03-22T10:50:20;11.40;;;3.13;;
34896;SDS011;43407;51.828;-2.298;2024-03-22T10:52:48;11.57;;;2.88;;
34896;SDS011;43407;51.828;-2.298;2024-03-22T10:55:19;11.15;;;2.95;;
34896;SDS011;43407;51.828;-2.298;2024-03-22T10:57:47;11.40;;;3.17;;
34896;SDS011;43407;51.828;-2.298;2024-03-22T11:00:12;8.93;;;2.78;;
34896;SDS011;43407;51.828;-2.298;2024-03-22T11:02:42;15.00;;;3.20;;
34896;SDS011;43407;51.828;-2.298;2024-03-22T11:05:15;10.68;;;3.90;;
34896;SDS011;43407;51.828;-2.298;2024-03-22T11:07:40;8.75;;;2.92;;
34896;SDS011;43407;51.828;-2.298;2024-03-22T11:10:06;10.60;;;3.60;;
34896;SDS011;43407;51.828;-2.298;2024-03-22T11:12:32;10.25;;;3.30;;
34896;SDS011;43407;51.828;-2.298;2024-03-22T11:14:58;9.25;;;3.05;;
34896;SDS011;43407;51.828;-2.298;2024-03-22T11:17:24;8.98;;;2.95;;
34896;SDS011;43407;51.828;-2.298;2024-03-22T11:19:50;10.65;;;3.17;;
34896;SDS011;43407;51.828;-2.298;2024-03-22T11:22:16;7.88;;;2.80;;
34896;SDS011;43407;51.828;-2.298;2024-03-22T11:24:41;9.07;;;2.80;;
34896;SDS011;43407;51.828;-2.298;2024-03-22T11:27:06;11.38;;;3.58;;
34896;SDS011;43407;51.828;-2.298;2024-03-22T11:29:32;9.32;;;2.80;;
34896;SDS011;43407;51.828;-2.298;2024-03-22T11:31:57;9.15;;;2.75;;
34896;SDS011;43407;51.828;-2.298;2024-03-22T11:34:23;7.63;;;2.45;;
34896;SDS011;43407;51.828;-2.298;2024-03-22T11:36:48;9.18;;;2.30;;
34896;SDS011;43407;51.828;-2.298;2024-03-22T11:39:15;8.27;;;2.50;;
34896;SDS011;43407;51.828;-2.298;2024-03-22T11:41:40;7.30;;;2.25;;
34896;SDS011;43407;51.828;-2.298;2024-03-22T11:44:06;9.77;;;3.10;;
34896;SDS011;43407;51.828;-2.298;2024-03-22T11:46:31;8.02;;;2.78;;
34896;SDS011;43407;51.828;-2.298;2024-03-22T11:48:57;7.43;;;2.80;;
34896;SDS011;43407;51.828;-2.298;2024-03-22T11:51:23;8.75;;;2.60;;
34896;SDS011;43407;51.828;-2.298;2024-03-22T11:53:52;7.60;;;2.83;;
34896;SDS011;43407;51.828;-2.298;2024-03-22T11:56:22;6.00;;;2.20;;
34896;SDS011;43407;51.828;-2.298;2024-03-22T11:58:47;5.88;;;2.20;;
34896;SDS011;43407;51.828;-2.298;2024-03-22T12:01:16;5.05;;;2.03;;
34896;SDS011;43407;51.828;-2.298;2024-03-22T12:03:45;11.70;;;2.88;;
34896;SDS011;43407;51.828;-2.298;2024-03-22T12:06:12;8.70;;;2.63;;
34896;SDS011;43407;51.828;-2.298;2024-03-22T12:08:38;5.80;;;1.98;;
34896;SDS011;43407;51.828;-2.298;2024-03-22T12:11:06;6.32;;;1.90;;
34896;SDS011;43407;51.828;-2.298;2024-03-22T12:13:31;7.40;;;2.60;;
34896;SDS011;43407;51.828;-2.298;2024-03-22T12:15:57;8.80;;;3.13;;
34896;SDS011;43407;51.828;-2.298;2024-03-22T12:18:22;8.57;;;2.33;;
34896;SDS011;43407;51.828;-2.298;2024-03-22T12:20:47;6.95;;;2.03;;
34896;SDS011;43407;51.828;-2.298;2024-03-22T12:23:13;8.48;;;2.20;;
34896;SDS011;43407;51.828;-2.298;2024-03-22T12:25:38;6.97;;;2.17;;
34896;SDS011;43407;51.828;-2.298;2024-03-22T12:28:03;6.68;;;2.15;;
34896;SDS011;43407;51.828;-2.298;2024-03-22T12:30:29;10.40;;;2.05;;
34896;SDS011;43407;51.828;-2.298;2024-03-22T12:32:55;5.07;;;1.90;;
34896;SDS011;43407;51.828;-2.298;2024-03-22T12:35:20;6.18;;;2.17;;
34896;SDS011;43407;51.828;-2.298;2024-03-22T12:37:46;7.85;;;2.00;;
34896;SDS011;43407;51.828;-2.298;2024-03-22T12:40:11;4.88;;;1.88;;
34896;SDS011;43407;51.828;-2.298;2024-03-22T12:42:39;4.53;;;1.60;;
34896;SDS011;43407;51.828;-2.298;2024-03-22T12:45:04;5.05;;;1.80;;
34896;SDS011;43407;51.828;-2.298;2024-03-22T12:47:29;7.45;;;1.98;;
34896;SDS011;43407;51.828;-2.298;2024-03-22T12:49:55;6.82;;;1.60;;
34896;SDS011;43407;51.828;-2.298;2024-03-22T12:52:20;5.35;;;1.50;;
34896;SDS011;43407;51.828;-2.298;2024-03-22T12:54:45;4.40;;;1.60;;
34896;SDS011;43407;51.828;-2.298;2024-03-22T12:57:11;6.82;;;1.85;;
34896;SDS011;43407;51.828;-2.298;2024-03-22T12:59:36;7.95;;;1.90;;
34896;SDS011;43407;51.828;-2.298;2024-03-22T13:02:01;5.32;;;1.83;;
34896;SDS011;43407;51.828;-2.298;2024-03-22T13:04:26;7.43;;;1.75;;
34896;SDS011;43407;51.828;-2.298;2024-03-22T13:06:52;5.10;;;1.60;;
34896;SDS011;43407;51.828;-2.298;2024-03-22T13:09:17;4.50;;;1.58;;
34896;SDS011;43407;51.828;-2.298;2024-03-22T13:11:46;8.38;;;1.85;;
34896;SDS011;43407;51.828;-2.298;2024-03-22T13:14:12;5.28;;;1.95;;
34896;SDS011;43407;51.828;-2.298;2024-03-22T13:16:37;6.03;;;2.00;;
34896;SDS011;43407;51.828;-2.298;2024-03-22T13:19:03;3.10;;;1.45;;
34896;SDS011;43407;51.828;-2.298;2024-03-22T13:21:29;4.25;;;1.70;;
34896;SDS011;43407;51.828;-2.298;2024-03-22T13:23:56;5.82;;;1.70;;
34896;SDS011;43407;51.828;-2.298;2024-03-22T13:26:21;7.68;;;1.67;;
34896;SDS011;43407;51.828;-2.298;2024-03-22T13:28:46;6.57;;;1.70;;
34896;SDS011;43407;51.828;-2.298;2024-03-22T13:31:12;6.63;;;1.65;;
34896;SDS011;43407;51.828;-2.298;2024-03-22T13:33:37;6.53;;;1.98;;
34896;SDS011;43407;51.828;-2.298;2024-03-22T13:36:03;3.72;;;1.30;;
34896;SDS011;43407;51.828;-2.298;2024-03-22T13:38:29;8.35;;;1.80;;
34896;SDS011;43407;51.828;-2.298;2024-03-22T13:41:00;5.68;;;1.77;;
34896;SDS011;43407;51.828;-2.298;2024-03-22T13:43:29;3.50;;;1.30;;
34896;SDS011;43407;51.828;-2.298;2024-03-22T13:45:54;4.25;;;1.38;;
34896;SDS011;43407;51.828;-2.298;2024-03-22T13:48:20;7.15;;;1.67;;
34896;SDS011;43407;51.828;-2.298;2024-03-22T13:50:49;5.00;;;1.50;;
34896;SDS011;43407;51.828;-2.298;2024-03-22T13:53:14;4.38;;;1.40;;
34896;SDS011;43407;51.828;-2.298;2024-03-22T13:55:40;3.85;;;1.33;;
34896;SDS011;43407;51.828;-2.298;2024-03-22T13:58:07;6.13;;;1.77;;
34896;SDS011;43407;51.828;-2.298;2024-03-22T14:00:33;4.80;;;1.70;;
34896;SDS011;43407;51.828;-2.298;2024-03-22T14:02:58;4.63;;;1.55;;
34896;SDS011;43407;51.828;-2.298;2024-03-22T14:05:24;5.30;;;1.48;;
34896;SDS011;43407;51.828;-2.298;2024-03-22T14:07:50;4.82;;;1.50;;
34896;SDS011;43407;51.828;-2.298;2024-03-22T14:10:15;5.90;;;1.50;;
34896;SDS011;43407;51.828;-2.298;2024-03-22T14:12:41;3.85;;;1.50;;
34896;SDS011;43407;51.828;-2.298;2024-03-22T14:15:06;6.20;;;1.60;;
34896;SDS011;43407;51.828;-2.298;2024-03-22T14:17:31;4.80;;;1.65;;
34896;SDS011;43407;51.828;-2.298;2024-03-22T14:19:58;5.30;;;1.50;;
34896;SDS011;43407;51.828;-2.298;2024-03-22T14:22:23;2.40;;;1.40;;